Time;durP1;ratioP1;P1;durP2;ratioP2;P2;SDS_P1;SDS_P2;PMS_P1;PMS_P2;Temp;Humidity;BMP_temperature;BMP_pressure;BME280_temperature;BME280_humidity;BME280_pressure;Samples;Min_cycle;Max_cycle;Signal;HPM_P1;HPM_P2
2023/01/25 00:00:49;;;;;;;5.00;4.90;;;4.90;99.90;;;;;;5175690;23;20035;-84
2023/01/25 00:03:09;;;;;;;3.78;3.67;;;4.90;99.90;;;;;;5174605;23;20031;-84
2023/01/25 00:05:29;;;;;;;4.82;4.57;;;4.90;99.90;;;;;;5170765;23;20087;-84
2023/01/25 00:07:49;;;;;;;3.63;3.63;;;5.00;99.90;;;;;;5149624;23;20394;-84
2023/01/25 00:10:09;;;;;;;4.47;4.47;;;5.00;99.90;;;;;;5160735;23;20103;-84
2023/01/25 00:12:29;;;;;;;4.32;4.32;;;5.00;99.90;;;;;;5154187;23;20023;-84
2023/01/25 00:14:49;;;;;;;5.97;5.55;;;4.90;99.90;;;;;;5173585;23;20026;-84
2023/01/25 00:17:08;;;;;;;4.18;4.18;;;4.90;99.90;;;;;;5154200;23;20031;-84
2023/01/25 00:19:28;;;;;;;3.67;3.67;;;4.90;99.90;;;;;;5173463;23;20341;-84
2023/01/25 00:21:48;;;;;;;5.55;5.45;;;4.90;99.90;;;;;;5173608;23;20066;-84
2023/01/25 00:24:10;;;;;;;6.15;6.00;;;4.80;99.90;;;;;;5173422;23;20026;-84
2023/01/25 00:26:31;;;;;;;7.18;6.97;;;4.70;99.90;;;;;;5173494;23;20023;-84
2023/01/25 00:28:52;;;;;;;5.93;5.72;;;4.50;99.90;;;;;;5173623;23;20055;-84
2023/01/25 00:31:21;;;;;;;6.43;6.18;;;4.40;99.90;;;;;;5154162;23;20096;-84
2023/01/25 00:33:51;;;;;;;4.47;4.22;;;4.40;99.90;;;;;;5181826;23;20022;-84
2023/01/25 00:36:36;;;;;;;7.22;6.82;;;4.40;99.90;;;;;;5173377;23;20043;-84
2023/01/25 00:38:57;;;;;;;5.70;5.53;;;4.40;99.90;;;;;;5154037;23;20035;-84
2023/01/25 00:41:17;;;;;;;6.20;6.10;;;4.40;99.90;;;;;;5176619;23;20026;-84
2023/01/25 00:43:37;;;;;;;7.63;7.32;;;4.40;99.90;;;;;;5176201;23;20338;-84
2023/01/25 00:46:00;;;;;;;6.28;6.18;;;4.30;99.90;;;;;;5151358;23;20043;-84
2023/01/25 00:48:20;;;;;;;;;;;4.30;99.90;;;;;;5160333;23;20137;-84
2023/01/25 00:50:40;;;;;;;4.82;4.72;;;4.30;99.90;;;;;;5152383;23;19926;-84
2023/01/25 00:53:00;;;;;;;7.15;7.05;;;4.30;99.90;;;;;;5173339;23;20111;-84
2023/01/25 00:55:20;;;;;;;6.53;6.43;;;4.30;99.90;;;;;;5173400;23;20242;-84
2023/01/25 00:57:39;;;;;;;6.57;6.47;;;4.30;99.90;;;;;;5173432;23;20031;-84
2023/01/25 00:59:59;;;;;;;6.53;6.32;;;4.30;99.90;;;;;;5173356;23;20031;-84
2023/01/25 01:02:18;;;;;;;7.63;7.38;;;4.30;99.90;;;;;;5173352;23;20047;-84
2023/01/25 01:04:39;;;;;;;7.07;6.82;;;4.30;99.90;;;;;;5181751;23;20026;-84
2023/01/25 01:06:59;;;;;;;8.20;8.00;;;4.30;99.90;;;;;;5173283;23;20043;-84
2023/01/25 01:09:19;;;;;;;6.63;6.43;;;4.20;99.90;;;;;;5173286;23;20338;-84
2023/01/25 01:11:39;;;;;;;6.10;6.00;;;4.20;99.90;;;;;;5181811;23;20031;-84
2023/01/25 01:13:59;;;;;;;7.43;6.97;;;4.20;99.90;;;;;;5173332;23;20030;-84
2023/01/25 01:16:19;;;;;;;7.63;7.53;;;4.30;99.90;;;;;;5173339;23;20027;-84
2023/01/25 01:18:44;;;;;;;6.85;6.70;;;4.30;99.90;;;;;;5173322;23;20024;-84
2023/01/25 01:21:04;;;;;;;7.63;7.25;;;4.30;99.90;;;;;;5173075;23;20026;-84
2023/01/25 01:23:24;;;;;;;6.72;6.43;;;4.30;99.90;;;;;;5153861;23;20086;-84
2023/01/25 01:25:44;;;;;;;5.57;5.47;;;4.20;99.90;;;;;;5173311;23;20243;-84
2023/01/25 01:28:04;;;;;;;6.10;6.00;;;4.20;99.90;;;;;;5173328;23;20047;-84
2023/01/25 01:30:24;;;;;;;6.53;6.43;;;4.20;99.90;;;;;;5153864;23;20060;-84
2023/01/25 01:32:44;;;;;;;6.68;6.53;;;4.20;99.90;;;;;;5153960;23;20023;-84
2023/01/25 01:35:05;;;;;;;6.50;6.40;;;4.10;99.90;;;;;;5173298;23;20035;-84
2023/01/25 01:37:25;;;;;;;5.72;5.63;;;4.10;99.90;;;;;;5175278;23;20035;-84
2023/01/25 01:39:45;;;;;;;4.55;4.55;;;4.00;99.90;;;;;;5176349;23;20023;-84
2023/01/25 01:42:05;;;;;;;5.10;5.10;;;4.00;99.90;;;;;;5184851;23;20035;-84
2023/01/25 01:44:45;;;;;;;4.55;4.35;;;4.00;99.90;;;;;;5175672;23;20055;-84
2023/01/25 01:47:13;;;;;;;3.38;3.38;;;4.20;99.90;;;;;;5150726;23;20028;-84
2023/01/25 01:49:33;;;;;;;3.78;3.78;;;4.20;99.90;;;;;;5173083;23;20238;-84
2023/01/25 01:51:59;;;;;;;4.68;4.57;;;4.10;99.90;;;;;;5153945;23;20059;-84
2023/01/25 01:54:37;;;;;;;10.55;9.75;;;4.00;99.90;;;;;;5173219;23;20039;-84
2023/01/25 01:57:00;;;;;;;9.68;9.10;;;4.10;99.90;;;;;;5173246;23;20031;-84
2023/01/25 01:59:23;;;;;;;6.88;6.68;;;4.00;99.90;;;;;;5173131;23;20211;-84
2023/01/25 02:01:43;;;;;;;7.07;6.78;;;3.90;99.90;;;;;;5181697;23;20038;-84
2023/01/25 02:04:06;;;;;;;6.93;6.82;;;3.70;99.90;;;;;;5173129;23;20054;-84
2023/01/25 02:06:31;;;;;;;7.23;7.10;;;3.50;99.90;;;;;;5153840;23;20027;-85
2023/01/25 02:08:52;;;;;;;7.13;6.82;;;3.40;99.90;;;;;;5173129;23;20030;-84
2023/01/25 02:11:12;;;;;;;7.13;6.93;;;3.30;99.90;;;;;;5176406;23;20027;-84
2023/01/25 02:13:34;;;;;;;6.72;6.63;;;3.60;99.90;;;;;;5176389;23;20054;-84
2023/01/25 02:15:55;;;;;;;7.07;6.88;;;3.60;99.90;;;;;;5175822;23;20286;-84
2023/01/25 02:18:16;;;;;;;7.20;6.95;;;3.30;99.90;;;;;;5151188;23;20243;-84
2023/01/25 02:20:45;;;;;;;6.57;6.47;;;3.20;99.90;;;;;;5150099;23;20092;-84
2023/01/25 02:23:39;;;;;;;5.25;5.15;;;3.20;99.90;;;;;;5153626;23;20031;-84
2023/01/25 02:26:04;;;;;;;6.68;6.57;;;3.50;99.90;;;;;;5138746;23;20333;-84
2023/01/25 02:28:45;;;;;;;6.93;6.82;;;3.90;99.90;;;;;;5172998;23;20023;-84
2023/01/25 02:31:06;;;;;;;6.32;6.22;;;3.60;99.90;;;;;;5172688;23;20331;-84
2023/01/25 02:33:27;;;;;;;6.78;6.50;;;3.50;99.90;;;;;;5172988;23;20035;-84
2023/01/25 02:36:20;;;;;;;6.35;6.35;;;3.40;99.90;;;;;;5173065;23;20030;-84
2023/01/25 02:39:08;;;;;;;6.33;6.23;;;3.40;99.90;;;;;;5173082;23;20047;-84
2023/01/25 02:41:35;;;;;;;5.68;5.65;;;3.50;99.90;;;;;;5153705;23;20092;-84
2023/01/25 02:43:55;;;;;;;4.95;4.80;;;3.60;99.90;;;;;;5172918;23;20027;-84
2023/01/25 02:46:26;;;;;;;6.22;6.13;;;3.80;99.90;;;;;;5172940;23;20210;-84
2023/01/25 02:48:46;;;;;;;6.78;6.68;;;3.70;99.90;;;;;;5173015;23;20268;-84
2023/01/25 02:51:08;;;;;;;6.38;6.30;;;3.60;99.90;;;;;;5173055;23;20023;-84
2023/01/25 02:53:28;;;;;;;6.05;5.95;;;3.50;99.90;;;;;;5181316;23;20039;-84
2023/01/25 02:55:47;;;;;;;5.75;5.57;;;3.50;99.90;;;;;;5172882;23;20027;-84
2023/01/25 02:58:07;;;;;;;6.70;6.50;;;3.50;99.90;;;;;;5172952;23;20035;-84
2023/01/25 03:00:27;;;;;;;6.13;5.85;;;3.40;99.90;;;;;;5172834;23;20051;-84
2023/01/25 03:02:47;;;;;;;5.93;5.85;;;3.40;99.90;;;;;;5172875;23;20030;-84
2023/01/25 03:05:07;;;;;;;6.13;5.93;;;3.50;99.90;;;;;;5172960;23;20299;-84
2023/01/25 03:07:27;;;;;;;6.20;6.10;;;3.50;99.90;;;;;;5183479;23;20030;-84
2023/01/25 03:09:47;;;;;;;6.25;6.15;;;3.50;99.90;;;;;;5175983;23;20027;-84
2023/01/25 03:12:07;;;;;;;6.18;6.07;;;3.60;99.90;;;;;;5176083;23;20406;-84
2023/01/25 03:14:27;;;;;;;7.60;7.50;;;3.60;99.90;;;;;;5175143;23;20030;-84
2023/01/25 03:16:47;;;;;;;7.60;7.50;;;3.50;99.90;;;;;;5158054;23;20350;-84
2023/01/25 03:19:06;;;;;;;5.78;5.70;;;3.40;99.90;;;;;;5172156;23;20031;-84
2023/01/25 03:21:26;;;;;;;6.07;5.85;;;3.40;99.90;;;;;;5151421;23;20035;-84
2023/01/25 03:23:47;;;;;;;6.43;6.32;;;3.50;99.90;;;;;;5172694;23;20171;-84
2023/01/25 03:26:07;;;;;;;7.38;7.18;;;3.50;99.90;;;;;;5172815;23;20023;-84
2023/01/25 03:28:27;;;;;;;6.70;6.60;;;3.50;99.90;;;;;;5181256;23;20024;-84
2023/01/25 03:30:52;;;;;;;6.63;6.32;;;3.50;99.90;;;;;;5172703;23;20035;-84
2023/01/25 03:33:11;;;;;;;9.60;9.25;;;3.80;99.90;;;;;;5181019;23;20023;-84
2023/01/25 03:35:31;;;;;;;7.28;7.18;;;3.70;99.90;;;;;;5161714;23;20043;-84
2023/01/25 03:37:50;;;;;;;5.70;5.60;;;3.60;99.90;;;;;;5172881;23;20033;-84
2023/01/25 03:40:10;;;;;;;4.88;4.78;;;3.80;99.90;;;;;;5181049;23;20034;-84
2023/01/25 03:42:30;;;;;;;6.68;6.45;;;3.90;99.90;;;;;;5153378;23;20047;-84
2023/01/25 03:44:50;;;;;;;5.00;4.80;;;4.00;99.90;;;;;;5173673;23;20035;-84
2023/01/25 03:47:10;;;;;;;4.72;4.72;;;4.00;99.90;;;;;;5154494;23;20063;-84
2023/01/25 03:49:30;;;;;;;5.93;5.82;;;4.10;99.90;;;;;;5154471;23;20342;-85
2023/01/25 03:51:50;;;;;;;6.75;6.55;;;3.80;99.90;;;;;;5173720;23;20418;-84
2023/01/25 03:54:09;;;;;;;5.45;5.40;;;3.70;99.90;;;;;;5162549;23;20023;-84
2023/01/25 03:56:30;;;;;;;5.32;5.22;;;3.90;99.90;;;;;;5154279;23;20418;-84
2023/01/25 03:58:49;;;;;;;6.85;6.75;;;4.10;99.90;;;;;;5175731;23;20042;-84
2023/01/25 04:01:09;;;;;;;5.65;5.55;;;3.90;99.90;;;;;;5173592;23;20027;-84
2023/01/25 04:03:29;;;;;;;5.55;5.35;;;4.00;99.90;;;;;;5173573;23;20023;-84
2023/01/25 04:05:54;;;;;;;4.47;4.47;;;4.10;99.90;;;;;;5154475;23;20027;-84
2023/01/25 04:08:15;;;;;;;5.00;4.90;;;4.30;99.90;;;;;;5176825;23;20071;-84
2023/01/25 04:10:35;;;;;;;4.47;4.35;;;4.40;99.90;;;;;;5154223;23;20027;-84
2023/01/25 04:12:54;;;;;;;3.28;3.28;;;4.40;99.90;;;;;;5176776;23;20080;-84
2023/01/25 04:15:15;;;;;;;4.97;4.88;;;4.60;99.90;;;;;;5151885;23;20023;-84
2023/01/25 04:17:35;;;;;;;4.82;4.82;;;4.60;99.90;;;;;;5151511;23;20342;-84
2023/01/25 04:19:54;;;;;;;3.90;3.90;;;4.50;99.90;;;;;;5150462;23;20071;-84
2023/01/25 04:22:15;;;;;;;5.22;5.13;;;4.60;99.90;;;;;;5173598;23;20034;-84
2023/01/25 04:24:35;;;;;;;3.80;3.80;;;4.70;99.90;;;;;;5162414;23;20083;-84
2023/01/25 04:26:55;;;;;;;4.43;4.43;;;4.70;99.90;;;;;;5173609;23;20328;-84
2023/01/25 04:29:14;;;;;;;4.85;4.78;;;4.70;99.90;;;;;;5173566;23;20104;-84
2023/01/25 04:31:34;;;;;;;4.45;4.45;;;4.70;99.90;;;;;;5154147;23;20044;-84
2023/01/25 04:33:55;;;;;;;5.35;5.20;;;4.50;99.90;;;;;;5173430;23;20026;-84
2023/01/25 04:36:14;;;;;;;4.03;3.92;;;4.30;99.90;;;;;;5173543;23;20072;-84
2023/01/25 04:38:34;;;;;;;3.88;3.83;;;4.20;99.90;;;;;;5181877;23;20035;-84
2023/01/25 04:40:54;;;;;;;4.25;4.25;;;4.10;99.90;;;;;;5154179;23;20040;-84
2023/01/25 04:43:16;;;;;;;3.60;3.60;;;4.00;99.90;;;;;;5173504;23;20076;-84
2023/01/25 04:45:36;;;;;;;3.83;3.78;;;4.00;99.90;;;;;;5154078;23;20055;-85
2023/01/25 04:47:58;;;;;;;4.93;4.82;;;4.00;99.90;;;;;;5173410;23;20080;-84
2023/01/25 04:50:18;;;;;;;4.63;4.63;;;4.10;99.90;;;;;;5173493;23;20042;-84
2023/01/25 04:52:38;;;;;;;4.75;4.60;;;4.10;99.90;;;;;;5173494;23;20078;-84
2023/01/25 04:54:57;;;;;;;4.22;4.22;;;4.20;99.90;;;;;;5153947;23;20024;-84
2023/01/25 04:57:17;;;;;;;5.00;4.90;;;4.20;99.90;;;;;;5173480;23;20027;-84
2023/01/25 04:59:37;;;;;;;4.97;4.88;;;4.60;99.90;;;;;;5173481;23;20067;-84
2023/01/25 05:01:57;;;;;;;3.60;3.60;;;4.60;99.90;;;;;;5173438;23;20027;-85
2023/01/25 05:04:17;;;;;;;3.75;3.75;;;4.60;99.90;;;;;;5173454;23;20023;-84
2023/01/25 05:06:37;;;;;;;4.10;4.10;;;4.50;99.90;;;;;;5173478;23;20058;-84
2023/01/25 05:08:56;;;;;;;3.50;3.50;;;4.50;99.90;;;;;;5176513;23;20023;-84
2023/01/25 05:11:16;;;;;;;3.90;3.90;;;4.50;99.90;;;;;;5154105;23;20096;-84
2023/01/25 05:13:36;;;;;;;6.70;6.50;;;4.50;99.90;;;;;;5176586;23;20043;-84
2023/01/25 05:15:56;;;;;;;4.28;4.28;;;4.60;99.90;;;;;;5176365;23;20055;-84
2023/01/25 05:18:16;;;;;;;3.75;3.75;;;4.50;99.90;;;;;;5151255;23;20043;-84
2023/01/25 05:20:36;;;;;;;5.13;5.03;;;4.60;99.90;;;;;;5150264;23;20062;-84
2023/01/25 05:22:55;;;;;;;5.03;5.03;;;4.50;99.90;;;;;;5151320;23;20027;-84
2023/01/25 05:27:54;;;;;;;4.15;4.15;;;4.70;99.90;;;;;;5173288;23;20054;-84
2023/01/25 05:30:15;;;;;;;3.85;3.85;;;4.70;99.90;;;;;;5173339;23;20062;-84
2023/01/25 05:32:35;;;;;;;4.32;4.32;;;4.70;99.90;;;;;;5173238;23;20027;-84
2023/01/25 05:34:55;;;;;;;5.38;5.28;;;4.60;99.90;;;;;;5173182;23;20086;-84
2023/01/25 05:37:17;;;;;;;3.58;3.58;;;4.50;99.90;;;;;;5173382;23;20023;-85
2023/01/25 05:39:37;;;;;;;3.60;3.60;;;4.50;99.90;;;;;;5173329;23;20342;-84
2023/01/25 05:41:56;;;;;;;4.78;4.78;;;4.60;99.90;;;;;;5173218;23;20023;-84
2023/01/25 05:44:17;;;;;;;3.55;3.55;;;4.70;99.90;;;;;;5173289;23;20023;-84
2023/01/25 05:46:37;;;;;;;3.47;3.47;;;4.70;99.90;;;;;;5173279;23;20027;-84
2023/01/25 05:48:57;;;;;;;3.08;3.08;;;4.60;99.90;;;;;;5173190;23;20056;-84
2023/01/25 05:51:16;;;;;;;4.88;4.88;;;4.60;99.90;;;;;;5173245;23;20054;-84
2023/01/25 05:53:36;;;;;;;4.10;4.10;;;4.60;99.90;;;;;;5173216;23;20054;-85
2023/01/25 05:56:02;;;;;;;3.85;3.85;;;4.50;99.90;;;;;;5173143;23;20047;-84
2023/01/25 05:58:22;;;;;;;4.15;4.15;;;4.60;99.90;;;;;;5173121;23;20076;-84
2023/01/25 06:00:42;;;;;;;3.70;3.70;;;4.60;99.90;;;;;;5176349;23;20022;-84
2023/01/25 06:03:02;;;;;;;4.43;4.43;;;4.50;99.90;;;;;;5176281;23;20027;-84
2023/01/25 06:05:22;;;;;;;4.78;4.78;;;4.50;99.90;;;;;;5175870;23;20046;-84
2023/01/25 06:07:42;;;;;;;3.67;3.67;;;4.40;99.90;;;;;;5176206;23;20022;-84
2023/01/25 06:10:03;;;;;;;3.50;3.50;;;4.50;99.90;;;;;;5151170;23;20026;-84
2023/01/25 06:12:24;;;;;;;4.07;4.07;;;4.40;99.90;;;;;;5151161;23;20086;-84
2023/01/25 06:14:46;;;;;;;3.90;3.90;;;4.40;99.90;;;;;;5151690;23;20216;-84
2023/01/25 06:17:05;;;;;;;4.85;4.85;;;4.40;99.90;;;;;;5173192;23;20024;-84
2023/01/25 06:19:25;;;;;;;4.47;4.47;;;4.40;99.90;;;;;;5173100;23;20089;-84
2023/01/25 06:21:45;;;;;;;5.60;5.60;;;4.30;99.90;;;;;;5175094;23;20023;-84
2023/01/25 06:24:05;;;;;;;4.72;4.72;;;4.30;99.90;;;;;;5173096;23;20058;-84
2023/01/25 06:26:25;;;;;;;4.05;4.05;;;4.20;99.90;;;;;;5173046;23;20023;-84
2023/01/25 06:28:46;;;;;;;4.00;4.00;;;4.00;99.90;;;;;;5173086;23;20330;-84
2023/01/25 06:31:10;;;;;;;3.55;3.55;;;4.00;99.90;;;;;;5153734;23;20040;-84
2023/01/25 06:33:30;;;;;;;3.83;3.83;;;4.10;99.90;;;;;;5172951;23;20358;-84
2023/01/25 06:35:51;;;;;;;3.20;3.20;;;4.20;99.90;;;;;;5174986;23;20385;-84
2023/01/25 06:38:11;;;;;;;4.88;4.85;;;4.30;99.90;;;;;;5173190;23;20027;-84
2023/01/25 06:40:30;;;;;;;4.63;4.63;;;4.30;99.90;;;;;;5173024;23;20342;-84
2023/01/25 06:42:50;;;;;;;4.25;4.25;;;4.20;99.90;;;;;;5172969;23;20369;-84
2023/01/25 06:45:10;;;;;;;5.68;5.57;;;4.10;99.90;;;;;;5172951;23;20050;-84
2023/01/25 06:47:31;;;;;;;6.13;6.03;;;4.10;99.90;;;;;;5181476;23;20030;-84
2023/01/25 06:49:51;;;;;;;5.75;5.70;;;4.10;99.90;;;;;;5172950;23;20027;-84
2023/01/25 06:52:11;;;;;;;4.60;4.60;;;4.20;99.90;;;;;;5173049;23;20024;-84
2023/01/25 06:54:31;;;;;;;3.88;3.88;;;4.30;99.90;;;;;;5153652;23;20047;-85
2023/01/25 06:56:51;;;;;;;5.95;5.85;;;4.30;99.90;;;;;;5172947;23;20035;-84
2023/01/25 06:59:10;;;;;;;5.53;5.43;;;4.20;99.90;;;;;;5173020;23;20022;-84
2023/01/25 07:01:30;;;;;;;10.38;9.77;;;4.20;99.90;;;;;;5176267;23;20035;-84
2023/01/25 07:03:53;;;;;;;11.35;10.82;;;4.10;99.90;;;;;;5176008;23;20062;-84
2023/01/25 07:06:12;;;;;;;6.18;6.07;;;4.20;99.90;;;;;;5176029;23;20250;-84
2023/01/25 07:08:33;;;;;;;5.57;5.47;;;4.30;99.90;;;;;;5150981;23;20047;-84
2023/01/25 07:10:58;;;;;;;6.68;6.57;;;4.30;99.90;;;;;;5159192;23;20342;-84
2023/01/25 07:13:17;;;;;;;6.35;6.25;;;4.40;99.90;;;;;;5172820;23;20860;-84
2023/01/25 07:15:37;;;;;;;18.52;16.73;;;4.40;99.90;;;;;;5153606;23;20064;-84
2023/01/25 07:17:57;;;;;;;10.52;10.07;;;4.40;99.90;;;;;;5172854;23;20223;-84
2023/01/25 07:20:30;;;;;;;6.03;5.93;;;4.40;99.90;;;;;;5181257;23;20272;-84
2023/01/25 07:22:50;;;;;;;5.85;5.75;;;4.40;99.90;;;;;;5172799;23;20357;-84
2023/01/25 07:25:10;;;;;;;4.18;4.18;;;4.40;99.90;;;;;;5172785;23;20079;-84
2023/01/25 07:27:34;;;;;;;4.80;4.80;;;4.50;99.90;;;;;;5174801;23;20119;-84
2023/01/25 07:29:54;;;;;;;5.10;5.00;;;4.50;99.90;;;;;;5172733;23;20088;-84
2023/01/25 07:32:13;;;;;;;5.05;4.95;;;4.60;99.90;;;;;;5172776;23;20023;-84
2023/01/25 07:34:34;;;;;;;9.70;9.20;;;4.60;99.90;;;;;;5174743;23;20023;-84
2023/01/25 07:36:53;;;;;;;7.80;7.55;;;4.60;99.90;;;;;;5172748;23;20027;-84
2023/01/25 07:39:13;;;;;;;7.88;7.68;;;4.60;99.90;;;;;;5181224;23;20215;-84
2023/01/25 07:41:33;;;;;;;4.60;4.50;;;4.60;99.90;;;;;;5172710;23;20104;-84
2023/01/25 07:43:53;;;;;;;4.30;4.20;;;4.70;99.90;;;;;;5172550;23;20022;-84
2023/01/25 07:46:15;;;;;;;5.40;5.30;;;4.80;99.90;;;;;;5172705;23;20027;-84
2023/01/25 07:48:35;;;;;;;3.55;3.55;;;4.90;99.90;;;;;;5153307;23;20089;-84
2023/01/25 07:51:21;;;;;;;3.78;3.47;;;5.00;99.90;;;;;;5153129;23;20054;-84
2023/01/25 07:53:42;;;;;;;3.75;3.72;;;5.00;99.90;;;;;;5171855;23;20058;-84
2023/01/25 07:56:02;;;;;;;3.80;3.80;;;5.10;99.90;;;;;;5151262;23;20067;-84
2023/01/25 07:58:22;;;;;;;6.55;4.78;;;5.10;99.90;;;;;;5153216;23;20027;-84
2023/01/25 08:00:41;;;;;;;5.25;5.15;;;5.20;99.90;;;;;;5172434;23;20211;-84
2023/01/25 08:03:02;;;;;;;7.63;7.28;;;5.20;99.90;;;;;;5153192;23;20355;-84
2023/01/25 08:05:24;;;;;;;5.13;5.03;;;5.20;99.90;;;;;;5153196;23;20067;-84
2023/01/25 08:07:44;;;;;;;5.35;5.20;;;5.20;99.90;;;;;;5172519;23;20023;-84
2023/01/25 08:10:05;;;;;;;7.18;6.93;;;5.30;99.90;;;;;;5180862;23;20037;-84
2023/01/25 08:12:26;;;;;;;8.50;7.97;;;5.30;99.90;;;;;;5172507;23;20051;-84
2023/01/25 08:14:48;;;;;;;10.00;9.20;;;5.40;99.90;;;;;;5172465;23;20055;-84
2023/01/25 08:17:08;;;;;;;6.18;5.97;;;5.50;99.90;;;;;;5172425;23;20050;-84
2023/01/25 08:19:28;;;;;;;3.65;3.65;;;5.50;99.90;;;;;;5153115;23;20024;-84
2023/01/25 08:21:48;;;;;;;8.25;7.70;;;5.60;99.90;;;;;;5174362;23;20085;-84
2023/01/25 08:24:08;;;;;;;4.13;4.03;;;5.60;99.90;;;;;;5172270;23;20119;-84
2023/01/25 08:26:28;;;;;;;7.80;6.97;;;5.50;99.90;;;;;;5172239;23;20051;-84
2023/01/25 08:28:51;;;;;;;17.73;12.13;;;5.50;99.90;;;;;;5172556;23;20069;-84
2023/01/25 08:31:18;;;;;;;6.15;6.05;;;5.50;99.90;;;;;;5173541;23;20034;-84
2023/01/25 08:33:38;;;;;;;8.00;7.30;;;5.60;99.90;;;;;;5154044;23;20023;-84
2023/01/25 08:35:58;;;;;;;6.22;6.03;;;5.70;99.90;;;;;;5173588;23;20027;-84
2023/01/25 08:38:18;;;;;;;32.42;23.90;;;5.70;99.90;;;;;;5176755;23;20069;-84
2023/01/25 08:40:38;;;;;;;5.18;5.07;;;5.80;99.90;;;;;;5176619;23;20070;-84
2023/01/25 08:42:57;;;;;;;3.08;3.08;;;5.80;99.90;;;;;;5176702;23;20084;-84
2023/01/25 08:45:17;;;;;;;7.38;7.13;;;5.90;99.90;;;;;;5184356;23;20250;-84
2023/01/25 08:47:37;;;;;;;6.63;6.53;;;6.10;99.90;;;;;;5151503;23;20035;-84
2023/01/25 08:49:57;;;;;;;6.13;6.03;;;6.10;99.90;;;;;;5129228;23;20073;-84
2023/01/25 08:52:17;;;;;;;3.33;3.33;;;6.20;99.90;;;;;;5152027;23;20026;-84
2023/01/25 08:54:37;;;;;;;3.88;3.88;;;6.20;99.90;;;;;;5173402;23;20040;-84
2023/01/25 08:56:57;;;;;;;2.70;2.70;;;6.20;99.90;;;;;;5173402;23;20058;-84
2023/01/25 08:59:16;;;;;;;5.68;5.57;;;6.10;99.90;;;;;;5173497;23;20023;-84
2023/01/25 09:01:36;;;;;;;4.20;4.10;;;6.20;99.90;;;;;;5173378;23;20218;-84
2023/01/25 09:03:57;;;;;;;4.40;4.30;;;6.30;99.90;;;;;;5173252;23;20069;-84
2023/01/25 09:06:19;;;;;;;3.33;3.22;;;6.40;99.90;;;;;;5173426;23;20092;-84
2023/01/25 09:08:38;;;;;;;2.95;2.95;;;6.50;99.90;;;;;;5173430;23;20386;-85
2023/01/25 09:11:03;;;;;;;2.47;2.47;;;6.60;99.90;;;;;;5173369;23;20054;-85
2023/01/25 09:13:23;;;;;;;2.70;2.70;;;6.70;99.90;;;;;;5181887;23;20219;-84
2023/01/25 09:15:43;;;;;;;4.65;4.55;;;6.70;99.90;;;;;;5173389;23;20038;-85
2023/01/25 09:18:03;;;;;;;3.45;3.35;;;6.80;99.90;;;;;;5173267;23;20334;-85
2023/01/25 09:20:24;;;;;;;2.80;2.80;;;7.00;99.90;;;;;;5173259;23;20027;-85
2023/01/25 09:22:43;;;;;;;3.75;3.67;;;7.00;99.90;;;;;;5162418;23;20024;-84
2023/01/25 09:25:04;;;;;;;2.40;2.40;;;7.20;99.90;;;;;;5173202;23;20062;-84
2023/01/25 09:27:24;;;;;;;3.00;3.00;;;7.10;99.90;;;;;;5173294;23;20263;-84
2023/01/25 09:29:45;;;;;;;2.50;2.50;;;7.00;99.90;;;;;;5173340;23;20027;-84
2023/01/25 09:32:20;;;;;;;2.92;2.85;;;7.20;99.90;;;;;;5175548;23;20250;-84
2023/01/25 09:34:40;;;;;;;3.03;3.03;;;7.10;99.90;;;;;;5176455;23;20047;-84
2023/01/25 09:37:00;;;;;;;2.72;2.72;;;7.00;99.90;;;;;;5153743;23;20028;-84
2023/01/25 09:39:20;;;;;;;2.67;2.67;;;6.90;99.90;;;;;;5151330;23;20023;-84
2023/01/25 09:41:54;;;;;;;3.22;3.22;;;6.80;99.90;;;;;;5150626;23;20062;-84
2023/01/25 09:44:55;;;;;;;13.98;12.35;;;7.00;99.90;;;;;;5155131;23;20271;-84
2023/01/25 09:47:35;;;;;;;3.08;2.97;;;7.20;99.90;;;;;;5138200;23;20127;-84
2023/01/25 09:50:24;;;;;;;3.15;3.15;;;6.90;99.90;;;;;;5173220;23;20062;-84
2023/01/25 09:53:10;;;;;;;2.60;2.60;;;6.80;99.90;;;;;;5148878;23;20023;-84
2023/01/25 09:55:31;;;;;;;3.90;3.90;;;6.90;99.90;;;;;;5154329;23;20050;-84
2023/01/25 09:57:55;;;;;;;3.00;3.00;;;6.90;99.90;;;;;;5173128;23;20119;-85
2023/01/25 10:00:40;;;;;;;2.65;2.65;;;7.00;99.90;;;;;;5181649;23;20023;-85
2023/01/25 10:03:21;;;;;;;2.60;2.60;;;7.40;99.90;;;;;;5173217;23;20070;-85
2023/01/25 10:05:47;;;;;;;3.30;3.30;;;7.70;99.90;;;;;;5181667;23;20027;-85
2023/01/25 10:08:30;;;;;;;2.95;2.03;;;7.60;99.90;;;;;;5181675;23;20026;-85
2023/01/25 10:10:57;;;;;;;2.85;2.85;;;7.70;99.90;;;;;;5183981;23;20092;-85
2023/01/25 10:13:20;;;;;;;2.47;2.47;;;7.80;99.90;;;;;;5151403;23;20075;-84
2023/01/25 10:15:46;;;;;;;2.25;2.25;;;8.00;99.90;;;;;;5173181;23;20088;-84
2023/01/25 10:18:29;;;;;;;3.88;3.88;;;7.70;99.90;;;;;;5162029;23;20054;-84
2023/01/25 10:21:04;;;;;;;;;;;7.80;99.90;;;;;;5173611;23;20027;-84
2023/01/25 10:23:28;;;;;;;2.80;2.80;;;8.00;99.90;;;;;;5173006;23;20225;-84
2023/01/25 10:26:19;;;;;;;3.15;3.15;;;8.40;99.90;;;;;;5173086;23;20038;-84
2023/01/25 10:28:56;;;;;;;2.35;2.35;;;8.50;99.90;;;;;;5129173;23;20059;-84
2023/01/25 10:31:24;;;;;;;2.20;2.20;;;8.40;99.90;;;;;;5150040;23;20027;-84
2023/01/25 10:33:46;;;;;;;2.67;2.67;;;7.90;99.90;;;;;;5173034;23;20034;-84
2023/01/25 10:36:11;;;;;;;2.60;2.60;;;7.90;99.90;;;;;;5153823;23;20027;-84
2023/01/25 10:38:44;;;;;;;2.20;2.20;;;7.80;99.90;;;;;;5173094;23;20082;-84
2023/01/25 10:41:45;;;;;;;2.60;2.40;;;8.00;99.90;;;;;;5173082;23;20027;-84
2023/01/25 10:44:23;;;;;;;2.03;2.03;;;8.30;99.90;;;;;;5099801;23;20424;-84
2023/01/25 10:46:54;;;;;;;4.00;2.90;;;8.10;99.90;;;;;;5184607;23;20061;-84
2023/01/25 10:49:28;;;;;;;2.00;2.00;;;8.20;99.90;;;;;;5151032;23;20399;-84
2023/01/25 10:51:49;;;;;;;2.45;2.45;;;8.20;99.90;;;;;;5154387;23;20032;-84
2023/01/25 10:54:14;;;;;;;2.38;2.38;;;8.50;99.90;;;;;;5181435;23;20031;-84
2023/01/25 10:56:37;;;;;;;2.03;2.03;;;8.90;99.90;;;;;;5173045;23;20022;-84
2023/01/25 10:59:19;;;;;;;2.30;2.30;;;9.20;99.90;;;;;;5172936;23;20338;-84
2023/01/25 11:01:38;;;;;;;1.60;1.60;;;9.00;99.90;;;;;;5172863;23;20092;-84
2023/01/25 11:04:00;;;;;;;1.80;1.80;;;8.50;99.90;;;;;;5153502;23;20027;-84
2023/01/25 11:06:46;;;;;;;1.95;1.95;;;8.80;99.90;;;;;;5153612;23;20043;-84
2023/01/25 11:09:36;;;;;;;2.78;2.65;;;9.10;99.90;;;;;;5184597;23;20023;-84
2023/01/25 11:12:23;;;;;;;2.00;2.00;;;9.40;99.90;;;;;;5172941;23;20035;-85
2023/01/25 11:14:44;;;;;;;2.25;2.15;;;9.60;99.90;;;;;;5172948;23;20026;-84
2023/01/25 11:17:05;;;;;;;1.60;1.60;;;9.60;99.90;;;;;;5153410;23;20023;-84
2023/01/25 11:19:35;;;;;;;1.92;1.92;;;9.30;99.90;;;;;;5181203;23;20027;-84
2023/01/25 11:21:57;;;;;;;1.90;1.90;;;9.20;99.90;;;;;;5153534;23;20139;-85
2023/01/25 11:24:17;;;;;;;1.60;1.60;;;9.40;99.90;;;;;;5153455;23;20024;-85
2023/01/25 11:26:39;;;;;;;2.40;2.30;;;9.40;99.90;;;;;;5172774;23;20118;-85
2023/01/25 11:29:12;;;;;;;1.95;1.95;;;9.50;99.90;;;;;;5153565;23;20212;-85
2023/01/25 11:31:32;;;;;;;2.53;2.42;;;9.30;99.90;;;;;;5172842;23;20216;-85
2023/01/25 11:33:52;;;;;;;1.75;1.75;;;9.20;99.90;;;;;;5175864;23;20042;-85
2023/01/25 11:36:27;;;;;;;2.22;2.13;;;9.30;99.90;;;;;;5174749;23;20046;-84
2023/01/25 11:39:09;;;;;;;2.40;2.20;;;9.10;99.90;;;;;;5150236;23;20071;-85
2023/01/25 11:41:37;;;;;;;2.47;2.47;;;9.00;99.90;;;;;;5153264;23;20039;-85
2023/01/25 11:44:15;;;;;;;2.28;2.17;;;9.20;99.90;;;;;;5172562;23;20019;-85
2023/01/25 11:47:11;;;;;;;1.70;1.70;;;9.20;99.90;;;;;;5153282;23;20095;-85
2023/01/25 11:49:47;;;;;;;1.55;1.55;;;9.10;99.90;;;;;;5153295;23;20024;-85
2023/01/25 11:52:16;;;;;;;1.52;1.52;;;8.90;99.90;;;;;;5174920;23;20066;-84
2023/01/25 11:54:48;;;;;;;2.13;1.95;;;8.90;99.90;;;;;;5151230;23;20063;-85
2023/01/25 11:57:33;;;;;;;2.00;2.00;;;8.80;99.90;;;;;;5180985;23;20022;-85
2023/01/25 11:59:56;;;;;;;2.05;2.05;;;8.90;99.90;;;;;;5153219;23;20027;-85
2023/01/25 12:02:22;;;;;;;2.30;2.30;;;8.80;99.90;;;;;;5153132;23;20063;-85
2023/01/25 12:05:00;;;;;;;2.20;2.20;;;8.90;99.90;;;;;;5153763;23;20032;-85
2023/01/25 12:07:40;;;;;;;2.22;2.22;;;8.80;99.90;;;;;;5156034;23;20431;-84
2023/01/25 12:10:03;;;;;;;2.25;2.25;;;8.70;99.90;;;;;;5162667;23;20023;-85
2023/01/25 12:12:30;;;;;;;2.63;2.47;;;8.60;99.90;;;;;;5175574;23;20083;-84
2023/01/25 12:15:13;;;;;;;3.00;3.00;;;8.50;99.90;;;;;;5151858;23;20047;-84
2023/01/25 12:18:08;;;;;;;2.35;2.35;;;8.70;99.90;;;;;;5169614;23;20023;-85
2023/01/25 12:20:40;;;;;;;3.35;3.35;;;8.70;99.90;;;;;;5173582;23;20182;-84
2023/01/25 12:23:09;;;;;;;3.17;3.05;;;8.40;99.90;;;;;;5154233;23;20054;-84
2023/01/25 12:25:55;;;;;;;3.38;3.38;;;8.10;99.90;;;;;;5154172;23;20066;-85
2023/01/25 12:28:33;;;;;;;2.00;2.00;;;8.20;99.90;;;;;;5151675;23;20023;-84
2023/01/25 12:31:18;;;;;;;2.60;2.60;;;8.10;99.90;;;;;;5151290;23;20099;-84
2023/01/25 12:33:38;;;;;;;2.60;2.60;;;7.90;99.90;;;;;;5175536;23;20022;-85
2023/01/25 12:36:11;;;;;;;3.85;3.75;;;7.80;99.90;;;;;;5173352;23;20027;-84
2023/01/25 12:38:40;;;;;;;3.40;3.40;;;7.90;99.90;;;;;;5173496;23;20027;-84
2023/01/25 12:41:07;;;;;;;2.80;2.80;;;8.20;99.90;;;;;;5173427;23;20271;-84
2023/01/25 12:43:52;;;;;;;3.05;3.05;;;8.20;99.90;;;;;;5173470;23;20023;-84